Time;durP1;ratioP1;P1;durP2;ratioP2;P2;SDS_P1;SDS_P2;PMS_P1;PMS_P2;Temp;Humidity;BMP_temperature;BMP_pressure;BME280_temperature;BME280_humidity;BME280_pressure;Samples;Min_cycle;Max_cycle;Signal;HPM_P1;HPM_P2
2022/05/23 00:00:26;;;;;;;8.65;1.60;;;14.80;99.90;;;;;;4891564;28;206009;-77
2022/05/23 00:02:52;;;;;;;12.02;1.98;;;14.80;99.90;;;;;;4953576;28;20296;-77
2022/05/23 00:05:19;;;;;;;7.47;1.80;;;14.80;99.90;;;;;;4851075;28;206290;-77
2022/05/23 00:07:48;;;;;;;9.85;1.90;;;14.80;99.90;;;;;;4938211;28;20405;-77
2022/05/23 00:10:16;;;;;;;8.00;1.92;;;14.70;99.90;;;;;;4886339;28;207784;-78
2022/05/23 00:12:43;;;;;;;8.90;2.13;;;14.70;99.90;;;;;;4944846;28;20772;-77
2022/05/23 00:15:11;;;;;;;9.15;1.80;;;14.60;99.90;;;;;;4888945;28;213590;-77
2022/05/23 00:17:38;;;;;;;7.50;1.80;;;14.60;99.90;;;;;;4945250;28;20059;-77
2022/05/23 00:20:07;;;;;;;6.82;1.60;;;14.60;99.90;;;;;;4894887;28;130610;-78
2022/05/23 00:22:33;;;;;;;9.40;1.80;;;14.50;99.90;;;;;;4922990;28;20082;-78
2022/05/23 00:25:00;;;;;;;8.88;2.28;;;14.50;99.90;;;;;;4883092;28;251653;-77
2022/05/23 00:27:26;;;;;;;6.80;1.92;;;14.40;99.90;;;;;;4953111;28;20058;-77
2022/05/23 00:29:53;;;;;;;10.30;2.30;;;14.30;99.90;;;;;;4889269;28;212351;-77
2022/05/23 00:35:20;;;;;;;9.50;1.73;;;14.20;99.90;;;;;;4895666;28;208381;-76
2022/05/23 00:37:48;;;;;;;9.40;1.80;;;14.20;99.90;;;;;;4945621;28;20059;-76
2022/05/23 00:40:35;;;;;;;7.45;2.03;;;14.10;99.90;;;;;;4883139;28;208122;-76
2022/05/23 00:43:13;;;;;;;8.73;1.77;;;14.10;99.90;;;;;;4948654;28;20055;-76
2022/05/23 00:45:48;;;;;;;11.05;1.80;;;14.00;99.90;;;;;;4895858;23;205853;-65
2022/05/23 00:48:17;;;;;;;8.25;1.75;;;14.00;99.90;;;;;;4981485;28;20073;-65
2022/05/23 00:50:48;;;;;;;8.82;2.10;;;13.90;99.90;;;;;;4934058;28;205979;-65
2022/05/23 00:53:14;;;;;;;;;;;13.90;99.90;;;;;;4953632;28;20051;-66
2022/05/23 00:55:47;;;;;;;8.77;1.90;;;13.90;99.90;;;;;;4909410;28;206321;-66
2022/05/23 01:00:42;;;;;;;7.70;1.88;;;13.80;99.90;;;;;;4925644;28;216348;-66
2022/05/23 01:03:11;;;;;;;8.15;1.90;;;13.80;99.90;;;;;;4957749;28;20061;-67
2022/05/23 01:05:38;;;;;;;8.10;1.83;;;13.80;99.90;;;;;;4910921;28;216182;-67
2022/05/23 01:08:05;;;;;;;7.82;1.90;;;13.80;99.90;;;;;;4956425;28;20464;-67
2022/05/23 01:10:35;;;;;;;12.15;2.17;;;13.70;99.90;;;;;;4892203;28;202517;-66
2022/05/23 01:13:02;;;;;;;8.73;1.92;;;13.70;99.90;;;;;;4929728;28;20068;-67
2022/05/23 01:15:30;;;;;;;8.80;2.17;;;13.60;99.90;;;;;;4906551;28;246503;-68
2022/05/23 01:17:56;;;;;;;7.68;2.03;;;13.60;99.90;;;;;;4937804;28;20086;-67
2022/05/23 01:20:23;;;;;;;8.13;1.80;;;13.50;99.90;;;;;;4902862;28;218670;-67
2022/05/23 01:23:04;;;;;;;7.85;2.15;;;13.50;99.90;;;;;;4940634;28;20067;-68
2022/05/23 01:25:44;;;;;;;6.38;1.60;;;13.50;99.90;;;;;;4909378;28;210788;-67
2022/05/23 01:28:11;;;;;;;9.93;2.33;;;13.50;99.90;;;;;;4948979;28;20396;-68
2022/05/23 01:30:40;;;;;;;9.45;2.17;;;13.50;99.90;;;;;;4912649;28;215332;-68
2022/05/23 01:33:08;;;;;;;8.88;1.95;;;13.50;99.90;;;;;;4974346;28;20051;-67
2022/05/23 01:35:34;;;;;;;7.97;2.20;;;13.50;99.90;;;;;;4907392;28;211520;-68
2022/05/23 01:38:01;;;;;;;8.57;2.10;;;13.50;99.90;;;;;;4940293;28;20442;-67
2022/05/23 01:40:27;;;;;;;8.90;2.00;;;13.50;99.90;;;;;;4909114;28;231764;-68
2022/05/23 01:42:54;;;;;;;8.10;1.67;;;13.50;99.90;;;;;;4943613;28;20058;-68
2022/05/23 01:45:23;;;;;;;8.55;1.70;;;13.50;99.90;;;;;;4909030;28;215325;-68
2022/05/23 01:47:50;;;;;;;8.45;1.80;;;13.60;99.90;;;;;;4945393;28;20055;-67
2022/05/23 01:50:16;;;;;;;6.15;1.77;;;13.50;99.90;;;;;;4907517;28;211991;-68
2022/05/23 01:52:43;;;;;;;10.52;2.10;;;13.60;99.90;;;;;;4944064;28;20810;-68
2022/05/23 01:55:09;;;;;;;7.20;1.70;;;13.60;99.90;;;;;;4904068;28;230450;-68
2022/05/23 01:57:36;;;;;;;8.38;1.70;;;13.70;99.90;;;;;;4967390;28;20074;-68
2022/05/23 02:02:49;;;;;;;8.77;1.98;;;13.70;99.90;;;;;;4945546;28;20378;-68
2022/05/23 02:05:16;;;;;;;7.63;1.60;;;13.70;99.90;;;;;;4887634;28;207081;-68
2022/05/23 02:07:43;;;;;;;8.85;1.90;;;13.70;99.90;;;;;;4942544;28;20063;-68
2022/05/23 02:10:11;;;;;;;9.18;2.20;;;13.70;99.90;;;;;;4909625;28;210161;-68
2022/05/23 02:12:38;;;;;;;8.82;1.70;;;13.70;99.90;;;;;;4944927;28;20055;-68
2022/05/23 02:15:05;;;;;;;7.03;1.73;;;13.70;99.90;;;;;;4895136;28;229866;-67
2022/05/23 02:17:32;;;;;;;10.90;2.28;;;13.70;99.90;;;;;;4946431;28;20062;-68
2022/05/23 02:19:59;;;;;;;7.28;1.75;;;13.80;99.90;;;;;;4894261;28;217506;-67
2022/05/23 02:22:25;;;;;;;10.32;1.92;;;13.70;99.90;;;;;;4938210;28;20051;-67
2022/05/23 02:24:51;;;;;;;11.45;2.00;;;13.70;99.90;;;;;;4902082;28;209572;-67
2022/05/23 02:27:17;;;;;;;9.02;2.00;;;13.70;99.90;;;;;;4949572;28;20051;-67
2022/05/23 02:29:43;;;;;;;8.25;1.70;;;13.70;99.90;;;;;;4914602;28;223236;-68
2022/05/23 02:32:10;;;;;;;9.07;2.05;;;13.70;99.90;;;;;;4969366;28;20059;-67
2022/05/23 02:34:36;;;;;;;10.35;2.08;;;13.70;99.90;;;;;;4904957;28;210575;-67
2022/05/23 02:37:03;;;;;;;8.00;1.95;;;13.70;99.90;;;;;;4950525;28;20429;-66
2022/05/23 02:39:29;;;;;;;8.52;1.98;;;13.70;99.90;;;;;;4890528;28;218626;-68
2022/05/23 02:41:55;;;;;;;9.07;1.85;;;13.70;99.90;;;;;;4953110;28;20443;-67
2022/05/23 02:44:21;;;;;;;7.88;2.20;;;13.70;99.90;;;;;;4892870;28;211225;-67
2022/05/23 02:46:47;;;;;;;10.50;2.67;;;13.60;99.90;;;;;;4947029;28;20047;-67
2022/05/23 02:49:14;;;;;;;8.25;1.90;;;13.60;99.90;;;;;;4890191;28;212919;-67
2022/05/23 02:51:40;;;;;;;10.85;2.15;;;13.60;99.90;;;;;;4961528;28;20052;-68
2022/05/23 02:54:06;;;;;;;10.00;2.30;;;13.60;99.90;;;;;;4885709;28;250481;-67
2022/05/23 02:56:34;;;;;;;7.07;2.05;;;13.60;99.90;;;;;;4960452;28;20055;-66
2022/05/23 02:59:00;;;;;;;8.52;2.30;;;13.50;99.90;;;;;;4887994;28;225780;-67
2022/05/23 03:01:27;;;;;;;7.82;2.10;;;13.50;99.90;;;;;;4963648;28;20051;-67
2022/05/23 03:03:53;;;;;;;10.88;2.10;;;13.50;99.90;;;;;;4901076;28;210169;-68
2022/05/23 03:06:19;;;;;;;10.10;2.20;;;13.50;99.90;;;;;;4928101;28;212069;-68
2022/05/23 03:08:45;;;;;;;8.20;2.10;;;13.40;99.90;;;;;;4904441;28;210299;-67
2022/05/23 03:11:11;;;;;;;11.02;2.33;;;13.40;99.90;;;;;;4948882;28;91121;-68
2022/05/23 03:13:37;;;;;;;8.23;2.43;;;13.40;99.90;;;;;;4909013;28;209357;-68
2022/05/23 03:16:09;;;;;;;8.23;2.72;;;13.40;99.90;;;;;;4937049;28;77995;-68
2022/05/23 03:18:35;;;;;;;8.48;2.20;;;13.40;99.90;;;;;;4900975;28;209832;-68
2022/05/23 03:21:05;;;;;;;7.15;2.20;;;13.40;99.90;;;;;;4942693;28;92539;-68
2022/05/23 03:29:09;;;;;;;8.57;2.50;;;13.30;99.90;;;;;;4850163;28;216583;-68
2022/05/23 03:31:35;;;;;;;9.18;2.28;;;13.30;99.90;;;;;;4915764;29;20055;-68
2022/05/23 03:34:02;;;;;;;8.15;2.28;;;13.30;99.90;;;;;;4858225;29;205541;-68
2022/05/23 03:36:28;;;;;;;9.10;2.70;;;13.30;99.90;;;;;;4894762;29;20083;-66
2022/05/23 03:38:54;;;;;;;8.82;2.50;;;13.20;99.90;;;;;;4861902;28;209880;-67
2022/05/23 03:41:20;;;;;;;9.60;2.90;;;13.30;99.90;;;;;;4877578;29;220476;-67
2022/05/23 03:43:46;;;;;;;9.27;2.55;;;13.30;99.90;;;;;;4859622;29;211472;-67
2022/05/23 03:46:13;;;;;;;10.90;2.72;;;13.30;99.90;;;;;;4902552;29;235136;-68
2022/05/23 03:48:40;;;;;;;8.77;2.60;;;13.30;99.90;;;;;;4867544;28;206595;-67
2022/05/23 03:51:08;;;;;;;10.93;2.60;;;13.40;99.90;;;;;;4899365;29;277922;-67
2022/05/23 03:53:34;;;;;;;9.25;2.67;;;13.30;99.90;;;;;;4860635;28;209349;-67
2022/05/23 03:56:01;;;;;;;10.88;3.08;;;13.40;99.90;;;;;;4901803;28;22446;-68
2022/05/23 03:58:28;;;;;;;8.10;2.58;;;13.40;99.90;;;;;;4856510;29;206342;-68
2022/05/23 04:01:09;;;;;;;9.40;2.20;;;13.40;99.90;;;;;;4900365;29;108475;-67
2022/05/23 04:03:35;;;;;;;9.20;2.40;;;13.40;99.90;;;;;;4885556;28;209265;-68
2022/05/23 04:06:02;;;;;;;9.40;2.53;;;13.40;99.90;;;;;;4944103;28;203972;-68
2022/05/23 04:08:28;;;;;;;10.13;2.80;;;13.30;99.90;;;;;;4904199;28;216307;-68
2022/05/23 04:10:54;;;;;;;10.57;2.90;;;13.40;99.90;;;;;;4947512;28;145866;-67
2022/05/23 04:13:21;;;;;;;9.73;2.65;;;13.30;99.90;;;;;;4935303;28;229697;-67
2022/05/23 04:15:47;;;;;;;10.00;2.78;;;13.30;99.90;;;;;;4898663;28;144441;-67
2022/05/23 04:18:13;;;;;;;7.45;2.92;;;13.30;99.90;;;;;;4951130;28;20048;-67
2022/05/23 04:20:39;;;;;;;10.15;3.33;;;13.30;99.90;;;;;;4905216;28;212313;-67
2022/05/23 04:23:08;;;;;;;8.90;2.90;;;13.30;99.90;;;;;;4941728;28;20051;-67
2022/05/23 04:25:43;;;;;;;10.60;3.05;;;13.30;99.90;;;;;;4911023;28;215758;-67
2022/05/23 04:28:11;;;;;;;10.30;2.85;;;13.30;99.90;;;;;;4943282;28;20058;-66
2022/05/23 04:30:38;;;;;;;8.55;2.50;;;13.30;99.90;;;;;;4917065;28;175653;-68
2022/05/23 04:35:50;;;;;;;10.25;3.10;;;13.30;99.90;;;;;;4909693;28;209244;-66
2022/05/23 04:38:18;;;;;;;8.60;2.72;;;13.30;99.90;;;;;;4942803;28;20063;-66
2022/05/23 04:40:44;;;;;;;11.70;3.10;;;13.40;99.90;;;;;;4918731;28;209020;-68
2022/05/23 04:43:11;;;;;;;10.15;3.20;;;13.40;99.90;;;;;;4936928;28;20040;-68
2022/05/23 04:45:37;;;;;;;10.75;3.03;;;13.40;99.90;;;;;;4909839;28;210067;-67
2022/05/23 04:50:48;;;;;;;8.20;2.90;;;13.50;99.90;;;;;;4926173;28;237595;-68
2022/05/23 04:53:15;;;;;;;11.13;3.10;;;13.50;99.90;;;;;;4973232;28;20066;-68
2022/05/23 04:55:43;;;;;;;11.27;3.20;;;13.60;99.90;;;;;;4917535;28;208874;-67
2022/05/23 04:58:11;;;;;;;10.68;3.20;;;13.60;99.90;;;;;;4940803;28;20055;-67
2022/05/23 05:00:39;;;;;;;9.05;2.80;;;13.70;99.90;;;;;;4915189;28;209487;-67
2022/05/23 05:03:06;;;;;;;8.95;3.25;;;13.70;99.90;;;;;;4970296;28;20133;-67
2022/05/23 05:05:36;;;;;;;10.10;3.60;;;13.80;99.90;;;;;;4885374;28;253150;-67
2022/05/23 05:08:03;;;;;;;10.60;3.28;;;13.90;99.90;;;;;;4945304;28;20424;-67
2022/05/23 05:10:29;;;;;;;12.13;3.50;;;13.90;99.90;;;;;;4910423;28;211563;-68
2022/05/23 05:12:57;;;;;;;10.90;3.42;;;13.90;99.90;;;;;;4948936;28;20066;-68
2022/05/23 05:15:25;;;;;;;10.95;3.80;;;14.00;99.90;;;;;;4899931;28;205868;-67
2022/05/23 05:17:51;;;;;;;11.15;3.60;;;14.10;99.90;;;;;;4938800;28;20067;-66
2022/05/23 05:20:18;;;;;;;10.00;3.30;;;14.10;99.90;;;;;;4902689;28;247027;-67
2022/05/23 05:22:45;;;;;;;9.50;3.40;;;14.10;99.90;;;;;;4941667;28;20058;-68
2022/05/23 05:25:12;;;;;;;13.18;3.38;;;14.20;99.90;;;;;;4879811;28;211916;-68
2022/05/23 05:27:39;;;;;;;9.73;3.40;;;14.20;99.90;;;;;;4938719;28;20070;-66
2022/05/23 05:30:08;;;;;;;11.40;3.83;;;14.30;99.90;;;;;;4910803;28;204136;-66
2022/05/23 05:32:55;;;;;;;8.63;3.45;;;14.40;99.90;;;;;;4950139;28;20051;-68
2022/05/23 05:35:33;;;;;;;9.00;3.47;;;14.50;99.90;;;;;;4919382;28;206326;-67
2022/05/23 05:38:13;;;;;;;11.70;3.70;;;14.60;99.90;;;;;;4954351;28;20055;-67
2022/05/23 05:40:40;;;;;;;12.80;3.72;;;14.80;99.90;;;;;;4898165;28;208910;-68
2022/05/23 05:43:17;;;;;;;14.63;3.60;;;14.90;99.90;;;;;;4936052;28;20271;-68
2022/05/23 05:45:58;;;;;;;9.45;3.53;;;14.90;99.90;;;;;;4902877;28;207783;-69
2022/05/23 05:48:26;;;;;;;10.68;3.72;;;14.90;99.90;;;;;;4934632;28;201902;-67
2022/05/23 05:50:52;;;;;;;10.32;3.95;;;15.00;99.90;;;;;;4947881;28;209353;-68
2022/05/23 05:53:22;;;;;;;12.27;3.97;;;15.00;99.90;;;;;;4926453;28;20531;-68
2022/05/23 05:55:48;;;;;;;9.45;3.55;;;15.10;99.90;;;;;;4875976;28;235421;-67
2022/05/23 05:58:16;;;;;;;11.05;3.67;;;15.20;99.90;;;;;;4942361;28;20337;-67
2022/05/23 06:00:43;;;;;;;10.45;3.88;;;15.30;99.90;;;;;;4907825;28;207233;-67
2022/05/23 06:03:09;;;;;;;10.48;3.63;;;15.60;99.90;;;;;;4961965;28;20544;-67
2022/05/23 06:11:23;;;;;;;9.55;3.55;;;15.80;99.90;;;;;;4885225;28;206488;-67
2022/05/23 06:11:24;;;;;;;12.38;3.90;;;16.40;99.90;;;;;;4869427;28;206903;-66
2022/05/23 06:13:52;;;;;;;10.48;3.85;;;16.70;99.90;;;;;;4860570;28;212179;-66
2022/05/23 06:16:19;;;;;;;9.27;3.42;;;17.00;99.90;;;;;;4902498;28;150358;-67
2022/05/23 06:18:45;;;;;;;10.60;3.30;;;17.20;99.90;;;;;;4860655;28;208137;-66
2022/05/23 06:21:12;;;;;;;11.35;4.05;;;17.40;99.90;;;;;;4893014;29;131619;-66
2022/05/23 06:23:39;;;;;;;10.57;3.70;;;17.70;99.90;;;;;;4864183;28;210936;-67
2022/05/23 06:26:06;;;;;;;11.68;3.45;;;17.90;99.90;;;;;;4909646;28;116663;-66
2022/05/23 06:28:34;;;;;;;12.37;3.50;;;18.00;99.90;;;;;;4864519;28;206240;-66
2022/05/23 06:31:00;;;;;;;9.32;3.47;;;18.10;99.90;;;;;;4911116;28;132889;-67
2022/05/23 06:33:26;;;;;;;11.13;3.55;;;18.10;99.90;;;;;;4870736;28;208087;-66
2022/05/23 06:35:53;;;;;;;10.48;3.35;;;18.20;99.90;;;;;;4896965;28;99784;-67
2022/05/23 06:38:19;;;;;;;12.70;3.70;;;18.20;99.90;;;;;;4908622;29;20060;-66
2022/05/23 06:40:50;;;;;;;12.02;3.40;;;18.20;99.90;;;;;;4847547;29;226534;-67
2022/05/23 06:43:16;;;;;;;;;;;18.20;99.90;;;;;;4908141;29;20056;-65
2022/05/23 06:45:42;;;;;;;10.55;3.63;;;18.20;99.90;;;;;;4852500;28;207517;-67
2022/05/23 06:48:09;;;;;;;9.85;3.30;;;18.20;99.90;;;;;;4923101;28;20054;-67
2022/05/23 06:50:35;;;;;;;10.45;3.63;;;18.30;99.90;;;;;;4917509;28;219720;-67
2022/05/23 06:53:01;;;;;;;10.15;3.70;;;18.40;99.90;;;;;;4948582;28;20216;-68
2022/05/23 06:55:27;;;;;;;12.40;4.13;;;18.40;99.90;;;;;;4908139;28;215288;-66
2022/05/23 06:57:53;;;;;;;10.07;3.97;;;18.40;99.90;;;;;;4943231;28;20062;-68
2022/05/23 07:00:20;;;;;;;11.68;3.58;;;18.50;99.90;;;;;;4956000;23;275342;-69
2022/05/23 07:02:46;;;;;;;10.65;3.80;;;18.70;99.90;;;;;;5013636;28;20067;-66
2022/05/23 07:13:27;;;;;;;9.27;3.28;;;19.50;99.90;;;;;;4923707;28;211896;-66
2022/05/23 07:15:55;;;;;;;11.15;3.60;;;19.60;99.90;;;;;;4992622;28;171910;-67
2022/05/23 07:18:22;;;;;;;12.63;3.58;;;19.80;99.90;;;;;;4993606;28;210768;-67
2022/05/23 07:20:49;;;;;;;12.38;3.38;;;20.00;99.90;;;;;;4968782;28;125258;-67
2022/05/23 07:23:15;;;;;;;11.10;3.75;;;20.30;99.90;;;;;;4973664;28;20519;-65
2022/05/23 07:25:41;;;;;;;13.02;3.47;;;20.60;99.90;;;;;;4949115;28;214319;-67
2022/05/23 07:28:08;;;;;;;10.15;3.50;;;21.00;99.90;;;;;;4984141;28;20061;-69
2022/05/23 07:30:34;;;;;;;10.60;3.15;;;21.30;99.90;;;;;;4957107;28;206893;-66
2022/05/23 07:33:00;;;;;;;10.45;2.83;;;21.60;99.90;;;;;;4982588;28;20070;-67
2022/05/23 07:35:26;;;;;;;9.90;2.90;;;22.10;99.70;;;;;;4935153;28;206593;-67
2022/05/23 07:37:53;;;;;;;10.68;3.10;;;22.50;99.30;;;;;;4977382;28;20042;-67
2022/05/23 07:40:20;;;;;;;11.38;3.50;;;22.80;98.50;;;;;;4944663;28;210312;-67
2022/05/23 07:42:47;;;;;;;9.32;3.03;;;23.10;97.90;;;;;;4980183;28;20042;-67
2022/05/23 07:45:14;;;;;;;9.50;2.90;;;23.20;97.00;;;;;;4931278;28;215994;-67
2022/05/23 07:47:41;;;;;;;10.38;3.00;;;23.20;96.60;;;;;;4990486;28;20046;-67
2022/05/23 07:50:09;;;;;;;11.55;3.05;;;23.40;96.30;;;;;;4959159;28;214621;-67
2022/05/23 07:52:36;;;;;;;12.20;2.85;;;23.60;96.00;;;;;;4988353;28;20054;-66
2022/05/23 08:00:34;;;;;;;10.13;2.90;;;24.60;94.70;;;;;;4934292;28;215379;-68
2022/05/23 08:03:09;;;;;;;8.38;2.70;;;24.70;94.10;;;;;;4986114;28;20062;-67
2022/05/23 08:05:35;;;;;;;12.00;2.85;;;24.90;92.70;;;;;;4928255;28;286776;-68
2022/05/23 08:08:01;;;;;;;10.00;2.65;;;25.00;92.60;;;;;;4986148;28;20472;-66
2022/05/23 08:10:27;;;;;;;8.65;2.63;;;25.30;92.30;;;;;;4944260;28;218110;-67
2022/05/23 08:12:57;;;;;;;10.65;2.85;;;25.30;90.70;;;;;;4987619;28;20058;-68
2022/05/23 08:15:26;;;;;;;9.43;3.07;;;25.40;90.70;;;;;;4950063;28;236149;-67
2022/05/23 08:17:52;;;;;;;9.55;2.85;;;25.50;90.10;;;;;;4979504;28;20066;-67
2022/05/23 08:20:19;;;;;;;9.68;2.70;;;25.60;89.30;;;;;;4943419;28;210018;-67
2022/05/23 08:22:51;;;;;;;9.68;2.58;;;25.60;86.90;;;;;;4978782;28;20495;-66
2022/05/23 08:25:18;;;;;;;9.27;3.03;;;25.80;88.30;;;;;;4945104;28;219696;-67
2022/05/23 08:27:44;;;;;;;10.90;2.85;;;25.80;85.80;;;;;;4981684;28;20054;-67
2022/05/23 08:30:11;;;;;;;9.25;2.80;;;25.90;85.30;;;;;;4932527;28;206898;-66
2022/05/23 08:32:37;;;;;;;11.10;2.88;;;26.00;84.40;;;;;;4964427;28;20527;-68
2022/05/23 08:35:04;;;;;;;8.75;2.60;;;26.40;85.20;;;;;;4921099;28;214516;-67
2022/05/23 08:37:30;;;;;;;9.63;2.90;;;26.90;85.10;;;;;;4977683;28;20061;-67
2022/05/23 08:39:56;;;;;;;11.25;3.05;;;27.20;82.60;;;;;;4943470;28;210715;-68
2022/05/23 08:42:55;;;;;;;8.07;2.33;;;27.70;82.70;;;;;;4984993;28;20069;-67
2022/05/23 08:45:35;;;;;;;12.15;2.90;;;27.90;73.70;;;;;;4938691;28;217714;-67
2022/05/23 08:48:24;;;;;;;7.72;2.15;;;27.80;77.40;;;;;;4985456;28;20070;-67
2022/05/23 08:51:07;;;;;;;9.48;2.70;;;27.90;72.60;;;;;;4957571;28;206656;-68
2022/05/23 08:53:42;;;;;;;11.57;2.85;;;27.80;74.70;;;;;;4950299;28;210228;-67
2022/05/23 08:56:21;;;;;;;10.05;2.75;;;28.00;73.10;;;;;;4970265;28;81807;-70
2022/05/23 08:58:58;;;;;;;10.15;2.83;;;28.30;72.00;;;;;;4925282;28;213463;-68
2022/05/23 09:01:31;;;;;;;9.40;2.60;;;28.40;66.50;;;;;;4956523;28;20472;-67
2022/05/23 09:04:13;;;;;;;10.73;2.67;;;28.40;69.40;;;;;;4934104;28;210390;-67
2022/05/23 09:06:47;;;;;;;12.43;3.08;;;28.70;67.90;;;;;;4973282;28;154942;-67
2022/05/23 09:09:20;;;;;;;9.93;2.50;;;28.80;65.40;;;;;;4932475;28;209299;-66
2022/05/23 09:11:55;;;;;;;8.82;2.20;;;28.80;67.20;;;;;;4996059;28;20085;-67
2022/05/23 09:14:21;;;;;;;9.48;2.50;;;29.10;66.50;;;;;;4936247;28;209171;-66
2022/05/23 09:16:53;;;;;;;9.30;2.30;;;29.40;65.30;;;;;;4984381;28;20550;-67
2022/05/23 09:19:25;;;;;;;7.57;2.08;;;29.70;63.70;;;;;;4926739;28;209619;-67
2022/05/23 09:24:55;;;;;;;9.00;2.33;;;30.10;60.70;;;;;;4946028;28;215670;-68
2022/05/23 09:27:34;;;;;;;10.00;2.53;;;30.30;60.20;;;;;;4972530;28;20042;-68
2022/05/23 09:30:01;;;;;;;7.53;1.90;;;30.50;59.70;;;;;;4942675;28;206321;-68
2022/05/23 09:32:34;;;;;;;7.40;1.95;;;30.50;59.00;;;;;;4982909;28;20054;-68
2022/05/23 09:35:12;;;;;;;9.05;1.90;;;30.40;57.70;;;;;;4940437;28;160163;-67
2022/05/23 09:37:42;;;;;;;8.45;1.90;;;30.30;56.70;;;;;;4971932;28;20074;-68
2022/05/23 09:40:12;;;;;;;;;;;30.40;57.00;;;;;;4919105;28;206496;-67
2022/05/23 09:48:23;;;;;;;8.98;2.20;;;30.40;55.00;;;;;;4968333;28;213088;-67
2022/05/23 09:50:55;;;;;;;6.70;1.52;;;30.00;54.60;;;;;;4972998;28;157436;-69
2022/05/23 09:53:26;;;;;;;8.18;2.10;;;29.80;54.70;;;;;;4969913;28;211972;-67
2022/05/23 09:55:53;;;;;;;9.60;2.20;;;29.40;52.90;;;;;;4953438;28;206184;-68
2022/05/23 09:58:32;;;;;;;8.77;1.90;;;29.20;53.70;;;;;;4971782;28;20059;-68
2022/05/23 10:01:08;;;;;;;10.02;2.00;;;29.00;54.20;;;;;;4939356;28;208088;-68
2022/05/23 10:03:37;;;;;;;8.00;1.97;;;28.90;54.90;;;;;;4927901;28;226956;-68
2022/05/23 10:06:11;;;;;;;7.50;1.80;;;28.80;54.50;;;;;;4969397;28;115818;-67
2022/05/23 10:08:39;;;;;;;7.03;1.90;;;28.70;54.30;;;;;;4942989;28;213706;-67
2022/05/23 10:11:19;;;;;;;7.63;1.40;;;28.80;55.60;;;;;;4984438;28;91053;-68
2022/05/23 10:13:52;;;;;;;8.15;1.73;;;28.90;55.10;;;;;;4939998;28;210912;-66
2022/05/23 10:16:24;;;;;;;8.75;1.77;;;29.00;54.20;;;;;;4978792;28;94477;-68
2022/05/23 10:18:55;;;;;;;7.88;1.92;;;29.10;54.90;;;;;;4942107;28;210418;-67
2022/05/23 10:21:26;;;;;;;7.85;1.80;;;29.20;55.90;;;;;;4984406;28;20058;-67
2022/05/23 10:24:05;;;;;;;8.98;2.00;;;29.20;53.90;;;;;;4935540;28;212549;-68
2022/05/23 10:26:45;;;;;;;7.90;2.05;;;29.30;54.40;;;;;;4987654;28;20054;-67
2022/05/23 10:29:17;;;;;;;;;;;29.40;53.80;;;;;;4931866;28;207912;-68
2022/05/23 10:32:09;;;;;;;8.13;1.80;;;29.30;53.80;;;;;;4981954;28;19928;-68
2022/05/23 10:34:51;;;;;;;6.38;1.63;;;29.50;55.10;;;;;;4933215;28;209586;-68
2022/05/23 10:37:24;;;;;;;7.95;1.70;;;29.70;51.00;;;;;;4984339;28;21101;-68
2022/05/23 10:42:46;;;;;;;7.20;1.92;;;29.70;52.00;;;;;;4977666;28;20065;-67
2022/05/23 10:45:23;;;;;;;8.73;2.30;;;30.00;54.20;;;;;;4930025;28;232528;-67
2022/05/23 10:48:22;;;;;;;8.43;1.90;;;30.70;52.90;;;;;;5007523;28;20047;-69
2022/05/23 10:51:04;;;;;;;7.13;1.77;;;30.70;49.50;;;;;;4918614;28;206740;-69
2022/05/23 10:53:43;;;;;;;10.10;1.90;;;30.60;50.50;;;;;;4937838;28;164114;-69
2022/05/23 10:56:25;;;;;;;8.27;2.20;;;30.60;49.30;;;;;;4940252;28;21919;-67
2022/05/23 10:58:57;;;;;;;10.15;2.15;;;30.80;51.40;;;;;;4922790;28;214734;-68
2022/05/23 11:01:38;;;;;;;8.15;1.90;;;31.00;50.30;;;;;;4904730;28;279638;-68
2022/05/23 11:04:22;;;;;;;7.00;1.90;;;31.20;50.60;;;;;;4887158;28;207634;-68
2022/05/23 11:06:56;;;;;;;7.68;1.75;;;31.40;50.00;;;;;;4974046;28;20057;-67
2022/05/23 11:09:32;;;;;;;9.55;1.92;;;32.00;50.90;;;;;;4938453;28;132600;-68
2022/05/23 11:12:17;;;;;;;8.82;2.10;;;32.50;50.40;;;;;;4988837;28;20050;-68
2022/05/23 11:15:09;;;;;;;8.05;1.70;;;33.00;49.70;;;;;;4907174;28;205656;-67
2022/05/23 11:17:50;;;;;;;8.40;1.90;;;33.50;47.30;;;;;;4954470;28;20424;-69
2022/05/23 11:20:23;;;;;;;7.20;2.00;;;33.80;47.20;;;;;;4899253;28;207031;-68
2022/05/23 11:23:08;;;;;;;7.05;1.60;;;33.70;46.90;;;;;;4922164;28;22067;-68
2022/05/23 11:25:45;;;;;;;8.15;1.80;;;33.20;45.90;;;;;;4903903;28;206428;-67
2022/05/23 11:34:47;;;;;;;6.63;1.58;;;33.20;46.30;;;;;;4926409;28;210109;-68
2022/05/23 11:39:52;;;;;;;7.15;1.70;;;33.70;46.00;;;;;;4880084;28;209869;-68
2022/05/23 11:42:52;;;;;;;6.07;1.42;;;33.90;45.20;;;;;;4929766;28;20055;-68
2022/05/23 11:48:35;;;;;;;9.80;1.75;;;33.70;44.30;;;;;;4956952;28;20070;-68
2022/05/23 11:51:36;;;;;;;6.55;1.48;;;33.70;44.30;;;;;;4867019;28;250326;-68
2022/05/23 11:54:29;;;;;;;6.57;1.60;;;33.90;44.00;;;;;;4873675;28;206049;-69
2022/05/23 11:57:04;;;;;;;9.45;1.60;;;34.10;43.20;;;;;;4922784;29;20064;-69
2022/05/23 11:59:30;;;;;;;6.82;1.50;;;34.00;44.00;;;;;;4889531;28;211102;-69
2022/05/23 12:02:21;;;;;;;6.38;1.50;;;34.00;43.70;;;;;;4914763;28;20448;-69
2022/05/23 12:05:09;;;;;;;6.53;1.50;;;34.40;43.20;;;;;;4874825;28;203995;-68
2022/05/23 12:07:36;;;;;;;6.90;1.60;;;34.30;41.80;;;;;;4935233;28;20039;-69
2022/05/23 12:10:21;;;;;;;13.48;1.75;;;34.00;42.30;;;;;;4894851;28;220415;-69
2022/05/23 12:12:53;;;;;;;7.25;1.60;;;34.40;42.90;;;;;;4940639;28;20062;-69
2022/05/23 12:15:47;;;;;;;8.52;1.70;;;34.40;43.90;;;;;;4947839;28;213652;-68
2022/05/23 12:18:22;;;;;;;7.25;1.60;;;34.40;41.80;;;;;;4984627;28;20057;-68
2022/05/23 12:20:51;;;;;;;9.65;1.70;;;33.70;41.40;;;;;;4940658;28;212737;-69
2022/05/23 12:23:32;;;;;;;9.20;1.70;;;33.20;42.90;;;;;;4975479;28;20057;-69
2022/05/23 12:26:12;;;;;;;7.40;1.48;;;33.10;42.70;;;;;;4946497;28;188639;-69
2022/05/23 12:28:58;;;;;;;7.93;1.90;;;32.60;43.20;;;;;;4946664;28;221572;-69
2022/05/23 12:31:33;;;;;;;7.55;1.80;;;31.90;43.00;;;;;;4993727;28;20043;-69
2022/05/23 12:34:02;;;;;;;6.32;1.52;;;31.50;43.90;;;;;;4936852;28;209422;-69
2022/05/23 12:36:31;;;;;;;8.15;1.80;;;31.20;44.40;;;;;;4982853;28;20058;-68
2022/05/23 12:39:09;;;;;;;8.82;1.90;;;30.90;44.40;;;;;;4968472;28;221544;-69
2022/05/23 12:42:19;;;;;;;8.52;1.80;;;30.40;45.30;;;;;;4970966;28;20523;-69
2022/05/23 12:45:11;;;;;;;6.78;1.80;;;29.80;45.90;;;;;;4962712;28;228660;-68
2022/05/23 12:48:04;;;;;;;8.65;1.90;;;29.50;47.30;;;;;;4984484;28;20054;-69
2022/05/23 12:51:07;;;;;;;9.10;2.10;;;29.50;47.70;;;;;;4946382;28;206964;-69
2022/05/23 12:53:47;;;;;;;9.70;2.10;;;29.50;47.30;;;;;;4944301;28;209804;-69
2022/05/23 12:56:51;;;;;;;10.82;2.05;;;29.40;47.70;;;;;;4986767;28;187338;-69
2022/05/23 12:59:41;;;;;;;9.55;2.10;;;29.20;48.70;;;;;;4929027;28;213134;-72
2022/05/23 13:02:15;;;;;;;8.68;2.40;;;29.20;48.20;;;;;;4986421;28;20418;-71
2022/05/23 13:04:51;;;;;;;8.32;2.08;;;29.00;48.60;;;;;;4906602;28;278025;-72
2022/05/23 13:07:46;;;;;;;10.75;2.10;;;29.00;48.90;;;;;;4983011;28;20388;-71
2022/05/23 13:10:20;;;;;;;7.78;2.00;;;28.90;49.40;;;;;;4934664;28;212760;-70
2022/05/23 13:13:02;;;;;;;6.90;2.00;;;28.80;49.90;;;;;;4978559;28;20043;-70
2022/05/23 13:15:31;;;;;;;10.13;2.13;;;28.70;50.40;;;;;;4929112;28;182667;-70
2022/05/23 13:23:30;;;;;;;8.82;2.13;;;27.80;50.70;;;;;;4940223;28;209346;-69
2022/05/23 13:25:58;;;;;;;9.25;2.28;;;27.50;51.30;;;;;;4986544;28;92191;-70
2022/05/23 13:28:24;;;;;;;9.88;1.98;;;27.30;50.90;;;;;;4994272;28;208620;-70
2022/05/23 13:30:56;;;;;;;6.88;1.90;;;27.00;52.10;;;;;;4986214;28;202927;-70
2022/05/23 13:33:31;;;;;;;8.40;2.22;;;26.90;52.90;;;;;;4967417;28;210709;-69
2022/05/23 13:36:00;;;;;;;8.07;2.20;;;26.80;52.80;;;;;;4908293;28;208231;-69
2022/05/23 13:38:31;;;;;;;11.73;2.33;;;26.70;53.60;;;;;;4930128;28;213400;-69
2022/05/23 13:40:59;;;;;;;11.38;2.40;;;26.50;54.20;;;;;;4971416;28;154100;-70
2022/05/23 13:43:28;;;;;;;7.88;2.22;;;26.30;53.80;;;;;;4934960;28;210904;-69
2022/05/23 13:46:22;;;;;;;8.20;2.30;;;26.20;54.70;;;;;;4986519;28;236721;-69
2022/05/23 13:48:55;;;;;;;9.82;2.50;;;26.10;55.70;;;;;;4946441;28;206014;-69
2022/05/23 13:51:49;;;;;;;9.02;2.40;;;26.10;55.30;;;;;;4991102;28;116586;-69
2022/05/23 13:54:37;;;;;;;9.55;2.45;;;26.10;55.90;;;;;;4874405;28;213235;-69
2022/05/23 13:57:14;;;;;;;9.90;2.42;;;26.10;56.50;;;;;;4927656;28;20048;-70
2022/05/23 13:59:46;;;;;;;8.95;2.40;;;26.10;56.40;;;;;;4888763;28;101192;-70
2022/05/23 14:02:20;;;;;;;9.52;2.65;;;26.20;56.20;;;;;;4913473;28;20054;-70
2022/05/23 14:04:48;;;;;;;12.35;2.70;;;26.30;56.80;;;;;;4861302;28;207313;-70